Time;durP1;ratioP1;P1;durP2;ratioP2;P2;SDS_P1;SDS_P2;PMS_P1;PMS_P2;Temp;Humidity;BMP_temperature;BMP_pressure;BME280_temperature;BME280_humidity;BME280_pressure;Samples;Min_cycle;Max_cycle;Signal;HPM_P1;HPM_P2
2022/06/19 00:02:25;;;;;;;6.68;2.13;;;;;;;;;;5028427;28;20049;-62
2022/06/19 00:04:53;;;;;;;4.80;1.90;;;;;;;;;;5039544;28;20041;-61
2022/06/19 00:07:20;;;;;;;4.93;2.20;;;;;;;;;;5040670;28;20040;-62
2022/06/19 00:09:47;;;;;;;4.65;2.05;;;;;;;;;;5040612;28;20660;-62
2022/06/19 00:12:14;;;;;;;5.15;2.33;;;;;;;;;;5032867;28;20033;-62
2022/06/19 00:14:41;;;;;;;4.65;1.95;;;;;;;;;;5037420;28;20048;-62
2022/06/19 00:17:09;;;;;;;5.65;2.65;;;;;;;;;;5019135;28;20033;-60
2022/06/19 00:19:36;;;;;;;9.88;2.65;;;;;;;;;;5012239;28;20525;-63
2022/06/19 00:22:03;;;;;;;3.97;2.13;;;;;;;;;;5021055;28;20044;-60
2022/06/19 00:24:30;;;;;;;5.55;1.95;;;;;;;;;;5011082;28;20180;-60
2022/06/19 00:26:56;;;;;;;4.10;2.20;;;;;;;;;;5020302;28;20033;-59
2022/06/19 00:29:23;;;;;;;5.32;2.45;;;;;;;;;;5019480;28;20154;-63
2022/06/19 00:31:50;;;;;;;5.57;2.45;;;;;;;;;;5029165;28;20033;-63
2022/06/19 00:34:17;;;;;;;4.53;2.63;;;;;;;;;;5035585;28;20048;-56
2022/06/19 00:36:48;;;;;;;8.23;2.33;;;;;;;;;;5009315;28;20037;-62
2022/06/19 00:39:15;;;;;;;4.80;1.83;;;;;;;;;;5016797;28;20099;-63
2022/06/19 00:41:42;;;;;;;6.38;1.80;;;;;;;;;;5010135;28;20067;-62
2022/06/19 00:44:10;;;;;;;6.38;2.05;;;;;;;;;;5018650;28;20033;-63
2022/06/19 00:46:39;;;;;;;5.90;2.30;;;;;;;;;;5019629;28;20049;-63
2022/06/19 00:49:09;;;;;;;4.47;2.22;;;;;;;;;;5017510;28;20128;-63
2022/06/19 00:51:36;;;;;;;4.97;2.55;;;;;;;;;;5019207;28;20054;-63
2022/06/19 00:54:02;;;;;;;6.18;2.47;;;;;;;;;;5019243;28;20115;-63
2022/06/19 00:56:30;;;;;;;5.45;2.55;;;;;;;;;;5009975;28;20062;-64
2022/06/19 00:58:56;;;;;;;4.80;2.40;;;;;;;;;;5016625;28;20095;-63
2022/06/19 01:01:24;;;;;;;5.47;2.55;;;;;;;;;;5009528;28;20461;-63
2022/06/19 01:03:54;;;;;;;4.70;2.67;;;;;;;;;;5015480;28;20498;-63
2022/06/19 01:06:21;;;;;;;6.22;2.60;;;;;;;;;;5033192;28;20053;-63
2022/06/19 01:08:48;;;;;;;9.68;2.65;;;;;;;;;;5018507;28;20042;-63
2022/06/19 01:11:15;;;;;;;5.32;2.55;;;;;;;;;;5023546;28;20049;-64
2022/06/19 01:13:42;;;;;;;5.40;2.35;;;;;;;;;;5027876;28;20049;-63
2022/06/19 01:16:09;;;;;;;6.65;2.40;;;;;;;;;;5030961;28;20045;-62
2022/06/19 01:18:37;;;;;;;5.50;2.30;;;;;;;;;;5016361;28;20033;-62
2022/06/19 01:21:24;;;;;;;4.03;1.90;;;;;;;;;;5014473;28;20100;-63
2022/06/19 01:23:57;;;;;;;5.50;2.17;;;;;;;;;;5019012;28;20065;-63
2022/06/19 01:26:24;;;;;;;6.00;2.38;;;;;;;;;;5028256;28;20127;-64
2022/06/19 01:28:56;;;;;;;6.90;2.42;;;;;;;;;;5017182;28;20111;-64
2022/06/19 01:31:31;;;;;;;7.43;2.42;;;;;;;;;;5018484;28;20437;-63
2022/06/19 01:33:58;;;;;;;8.60;2.60;;;;;;;;;;5027784;28;20053;-63
2022/06/19 01:36:26;;;;;;;7.22;2.30;;;;;;;;;;5026878;28;21066;-63
2022/06/19 01:38:54;;;;;;;6.45;2.45;;;;;;;;;;5025579;28;20613;-63
2022/06/19 01:41:29;;;;;;;4.15;2.17;;;;;;;;;;5033471;28;20053;-64
2022/06/19 01:43:56;;;;;;;6.93;1.90;;;;;;;;;;5022708;28;20065;-64
2022/06/19 01:46:23;;;;;;;5.47;2.00;;;;;;;;;;5025706;28;20053;-62
2022/06/19 01:48:50;;;;;;;7.05;2.08;;;;;;;;;;5022260;28;20501;-64
2022/06/19 01:51:17;;;;;;;4.90;2.03;;;;;;;;;;5026103;28;20057;-63
2022/06/19 01:53:46;;;;;;;3.97;1.70;;;;;;;;;;5012950;28;20514;-67
2022/06/19 01:56:13;;;;;;;5.72;2.50;;;;;;;;;;5015091;28;20045;-60
2022/06/19 01:58:42;;;;;;;5.70;2.13;;;;;;;;;;5014786;28;20075;-63
2022/06/19 02:01:09;;;;;;;7.97;2.85;;;;;;;;;;5017187;28;20112;-65
2022/06/19 02:03:44;;;;;;;7.18;3.38;;;;;;;;;;5014370;28;20056;-63
2022/06/19 02:06:11;;;;;;;4.82;2.10;;;;;;;;;;5012961;28;20045;-64
2022/06/19 02:08:38;;;;;;;7.10;2.38;;;;;;;;;;5012559;28;20068;-63
2022/06/19 02:11:06;;;;;;;5.72;2.47;;;;;;;;;;5014939;28;20112;-64
2022/06/19 02:13:34;;;;;;;4.88;2.00;;;;;;;;;;5011738;28;20047;-65
2022/06/19 02:16:02;;;;;;;3.95;2.08;;;;;;;;;;5013330;28;20056;-64
2022/06/19 02:18:34;;;;;;;5.28;2.28;;;;;;;;;;5014178;28;20041;-63
2022/06/19 02:21:01;;;;;;;5.03;2.20;;;;;;;;;;5014730;28;20065;-63
2022/06/19 02:23:32;;;;;;;3.58;1.90;;;;;;;;;;5012939;28;20041;-64
2022/06/19 02:25:59;;;;;;;7.13;2.03;;;;;;;;;;5013216;28;20041;-64
2022/06/19 02:28:26;;;;;;;6.00;1.95;;;;;;;;;;5012397;28;20067;-63
2022/06/19 02:30:53;;;;;;;6.05;2.35;;;;;;;;;;5013812;28;20053;-65
2022/06/19 02:33:21;;;;;;;4.55;1.85;;;;;;;;;;5013434;28;20216;-64
2022/06/19 02:35:48;;;;;;;4.28;1.98;;;;;;;;;;5030943;28;20429;-64
2022/06/19 02:38:19;;;;;;;4.70;2.05;;;;;;;;;;5024652;28;20045;-64
2022/06/19 02:40:46;;;;;;;7.70;2.65;;;;;;;;;;5009360;28;20203;-64
2022/06/19 02:43:33;;;;;;;8.60;2.60;;;;;;;;;;5013317;28;20469;-64
2022/06/19 02:46:01;;;;;;;4.53;2.10;;;;;;;;;;5020988;28;20061;-63
2022/06/19 02:48:30;;;;;;;5.90;2.42;;;;;;;;;;5032958;28;20711;-64
2022/06/19 02:50:58;;;;;;;9.55;2.08;;;;;;;;;;5018009;28;20152;-63
2022/06/19 02:53:25;;;;;;;3.63;1.73;;;;;;;;;;5023023;28;20037;-63
2022/06/19 02:55:52;;;;;;;5.13;1.70;;;;;;;;;;5020056;28;20037;-64
2022/06/19 02:58:22;;;;;;;5.45;1.58;;;;;;;;;;5012653;28;20141;-64
2022/06/19 03:00:51;;;;;;;3.10;1.20;;;;;;;;;;5013525;28;20121;-66
2022/06/19 03:03:24;;;;;;;3.75;1.33;;;;;;;;;;5028911;28;20116;-63
2022/06/19 03:05:51;;;;;;;3.35;1.27;;;;;;;;;;5035424;28;20052;-58
2022/06/19 03:08:18;;;;;;;2.95;1.05;;;;;;;;;;5020648;28;20164;-58
2022/06/19 03:10:45;;;;;;;3.67;1.40;;;;;;;;;;5013429;28;20482;-59
2022/06/19 03:13:12;;;;;;;2.95;1.05;;;;;;;;;;5011881;28;20060;-61
2022/06/19 03:15:38;;;;;;;4.28;1.35;;;;;;;;;;5010561;28;20066;-62
2022/06/19 03:18:05;;;;;;;3.22;1.02;;;;;;;;;;5012555;28;20556;-65
2022/06/19 03:20:32;;;;;;;3.15;1.30;;;;;;;;;;5010746;28;20562;-65
2022/06/19 03:22:59;;;;;;;5.18;1.80;;;;;;;;;;5012485;28;20556;-64
2022/06/19 03:25:25;;;;;;;8.05;1.20;;;;;;;;;;5012222;28;20370;-64
2022/06/19 03:27:52;;;;;;;3.30;1.23;;;;;;;;;;5013430;28;20045;-63
2022/06/19 03:30:20;;;;;;;3.28;1.20;;;;;;;;;;5013040;28;20096;-63
2022/06/19 03:32:47;;;;;;;3.47;1.35;;;;;;;;;;5013096;28;20405;-65
2022/06/19 03:35:14;;;;;;;7.30;3.78;;;;;;;;;;5018921;28;20045;-65
2022/06/19 03:37:41;;;;;;;5.80;2.80;;;;;;;;;;5017284;28;20112;-64
2022/06/19 03:40:08;;;;;;;7.43;2.10;;;;;;;;;;5021685;28;20049;-64
2022/06/19 03:42:35;;;;;;;4.05;1.75;;;;;;;;;;5033032;28;20034;-63
2022/06/19 03:45:01;;;;;;;4.47;1.70;;;;;;;;;;5033111;28;20073;-65
2022/06/19 03:47:30;;;;;;;5.50;1.52;;;;;;;;;;5022678;28;20057;-67
2022/06/19 03:49:56;;;;;;;7.25;1.55;;;;;;;;;;5023838;28;20398;-65
2022/06/19 03:52:23;;;;;;;3.60;1.33;;;;;;;;;;5021390;28;20041;-66
2022/06/19 03:54:50;;;;;;;5.22;1.52;;;;;;;;;;5020949;28;20046;-65
2022/06/19 03:57:16;;;;;;;5.90;2.17;;;;;;;;;;5037947;28;20538;-66
2022/06/19 03:59:43;;;;;;;11.23;3.20;;;;;;;;;;5015735;28;20530;-65
2022/06/19 04:02:10;;;;;;;7.40;2.72;;;;;;;;;;5019406;28;20045;-65
2022/06/19 04:04:39;;;;;;;5.22;2.30;;;;;;;;;;5016041;28;20046;-66
2022/06/19 04:07:06;;;;;;;5.00;2.10;;;;;;;;;;5016667;28;20128;-65
2022/06/19 04:09:34;;;;;;;5.95;2.28;;;;;;;;;;5011848;28;20034;-65
2022/06/19 04:12:01;;;;;;;6.28;2.30;;;;;;;;;;5016162;28;20037;-66
2022/06/19 04:14:27;;;;;;;8.10;2.00;;;;;;;;;;5018068;28;20096;-66
2022/06/19 04:16:58;;;;;;;4.68;1.75;;;;;;;;;;5022071;28;20041;-67
2022/06/19 04:19:24;;;;;;;3.53;1.30;;;;;;;;;;5017862;28;20045;-62
2022/06/19 04:21:51;;;;;;;5.38;2.20;;;;;;;;;;5016251;28;20422;-61
2022/06/19 04:24:20;;;;;;;6.90;2.20;;;;;;;;;;5015468;28;20484;-66
2022/06/19 04:26:47;;;;;;;7.65;2.53;;;;;;;;;;5035372;28;20106;-66
2022/06/19 04:29:13;;;;;;;4.57;2.20;;;;;;;;;;5010967;28;20035;-66
2022/06/19 04:31:41;;;;;;;5.97;2.47;;;;;;;;;;5028630;28;20072;-66
2022/06/19 04:34:09;;;;;;;7.55;3.08;;;;;;;;;;5022997;28;20439;-67
2022/06/19 04:36:36;;;;;;;7.97;3.45;;;;;;;;;;5013813;28;20045;-67
2022/06/19 04:39:03;;;;;;;7.10;3.60;;;;;;;;;;5022676;28;20064;-67
2022/06/19 04:41:31;;;;;;;8.23;3.20;;;;;;;;;;5024660;28;20125;-65
2022/06/19 04:43:59;;;;;;;7.07;3.13;;;;;;;;;;5015797;28;20129;-66
2022/06/19 04:46:26;;;;;;;6.60;3.17;;;;;;;;;;5014177;28;20580;-67
2022/06/19 04:48:52;;;;;;;11.40;3.45;;;;;;;;;;5031484;28;20048;-66
2022/06/19 04:51:19;;;;;;;6.88;3.45;;;;;;;;;;4998605;28;20107;-65
2022/06/19 04:53:46;;;;;;;7.30;3.72;;;;;;;;;;5015995;28;21703;-66
2022/06/19 04:56:14;;;;;;;8.18;4.20;;;;;;;;;;5020085;28;20209;-65
2022/06/19 04:58:40;;;;;;;9.45;4.93;;;;;;;;;;5015980;28;22325;-66
2022/06/19 05:01:17;;;;;;;9.35;4.60;;;;;;;;;;5014965;28;20084;-66
2022/06/19 05:03:43;;;;;;;8.60;4.20;;;;;;;;;;5015849;28;20041;-66
2022/06/19 05:06:10;;;;;;;7.38;4.25;;;;;;;;;;5016452;28;20426;-66
2022/06/19 05:08:37;;;;;;;7.35;3.78;;;;;;;;;;5016159;28;20079;-65
2022/06/19 05:11:03;;;;;;;6.13;3.65;;;;;;;;;;5016395;28;20464;-66
2022/06/19 05:13:30;;;;;;;7.45;3.53;;;;;;;;;;5001758;28;20042;-66
2022/06/19 05:16:07;;;;;;;6.28;3.40;;;;;;;;;;5015489;28;20025;-65
2022/06/19 05:18:34;;;;;;;7.90;4.05;;;;;;;;;;5028112;28;20034;-65
2022/06/19 05:21:01;;;;;;;7.88;3.97;;;;;;;;;;5014872;28;20041;-65
2022/06/19 05:23:29;;;;;;;7.60;3.75;;;;;;;;;;5013061;28;20048;-63
2022/06/19 05:26:00;;;;;;;7.88;4.05;;;;;;;;;;5015611;28;20156;-64
2022/06/19 05:28:26;;;;;;;6.25;3.42;;;;;;;;;;5016525;28;20120;-64
2022/06/19 05:30:53;;;;;;;6.97;3.30;;;;;;;;;;5014325;28;20202;-66
2022/06/19 05:33:19;;;;;;;6.18;3.13;;;;;;;;;;5014020;28;20034;-65
2022/06/19 05:35:46;;;;;;;7.15;3.47;;;;;;;;;;5014612;28;20052;-63
2022/06/19 05:38:13;;;;;;;5.53;2.75;;;;;;;;;;5014511;28;20950;-65
2022/06/19 05:40:41;;;;;;;7.75;2.65;;;;;;;;;;5013565;28;20088;-65
2022/06/19 05:43:08;;;;;;;5.95;2.60;;;;;;;;;;5013862;28;20401;-65
2022/06/19 05:45:35;;;;;;;6.55;2.70;;;;;;;;;;5014624;28;20037;-65
2022/06/19 05:48:02;;;;;;;4.90;2.38;;;;;;;;;;5015191;28;20116;-65
2022/06/19 05:50:29;;;;;;;5.03;2.33;;;;;;;;;;5015602;28;20073;-65
2022/06/19 05:52:55;;;;;;;9.30;2.60;;;;;;;;;;5014954;28;20033;-65
2022/06/19 05:55:22;;;;;;;9.07;2.28;;;;;;;;;;5014939;28;20539;-65
2022/06/19 05:57:49;;;;;;;6.28;2.15;;;;;;;;;;5015226;28;20041;-64
2022/06/19 06:00:17;;;;;;;5.70;2.08;;;;;;;;;;5014526;28;20081;-64
2022/06/19 06:02:44;;;;;;;7.65;2.58;;;;;;;;;;5013911;28;20042;-64
2022/06/19 06:05:11;;;;;;;6.25;2.60;;;;;;;;;;5013040;28;20474;-64
2022/06/19 06:07:37;;;;;;;8.23;2.22;;;;;;;;;;5014155;28;20138;-64
2022/06/19 06:10:04;;;;;;;4.20;1.90;;;;;;;;;;5015369;28;20406;-65
2022/06/19 06:12:31;;;;;;;4.38;1.80;;;;;;;;;;5013996;28;20065;-65
2022/06/19 06:14:58;;;;;;;4.97;1.75;;;;;;;;;;5016429;28;20038;-66
2022/06/19 06:17:24;;;;;;;3.88;1.58;;;;;;;;;;5015750;28;20441;-66
2022/06/19 06:19:51;;;;;;;3.90;1.50;;;;;;;;;;5016734;28;20038;-66
2022/06/19 06:22:17;;;;;;;3.67;1.45;;;;;;;;;;5015186;28;20049;-64
2022/06/19 06:24:44;;;;;;;5.20;1.77;;;;;;;;;;5015302;28;20044;-65
2022/06/19 06:27:11;;;;;;;3.42;1.50;;;;;;;;;;5017265;28;20095;-64
2022/06/19 06:29:37;;;;;;;6.32;1.85;;;;;;;;;;5015315;28;20034;-64
2022/06/19 06:32:04;;;;;;;6.45;2.10;;;;;;;;;;5013492;28;20047;-64
2022/06/19 06:34:31;;;;;;;4.13;1.85;;;;;;;;;;5013363;28;20069;-64
2022/06/19 06:36:58;;;;;;;4.43;1.90;;;;;;;;;;5014125;28;20044;-64
2022/06/19 06:39:24;;;;;;;4.40;1.83;;;;;;;;;;5013265;28;20072;-64
2022/06/19 06:41:51;;;;;;;8.25;2.33;;;;;;;;;;5014669;28;20088;-64
2022/06/19 06:44:17;;;;;;;5.57;1.90;;;;;;;;;;5014408;28;20041;-64
2022/06/19 06:46:44;;;;;;;4.18;2.00;;;;;;;;;;5003118;28;20058;-64
2022/06/19 06:49:11;;;;;;;4.25;2.00;;;;;;;;;;4996341;28;20433;-64
2022/06/19 06:51:37;;;;;;;4.55;1.80;;;;;;;;;;5012849;28;20120;-63
2022/06/19 06:54:04;;;;;;;8.00;1.98;;;;;;;;;;5013305;28;20477;-64
2022/06/19 06:56:32;;;;;;;4.38;2.13;;;;;;;;;;5013182;28;20038;-63
2022/06/19 06:58:59;;;;;;;6.20;2.30;;;;;;;;;;5016218;28;20045;-64
2022/06/19 07:01:25;;;;;;;4.22;2.10;;;;;;;;;;5014373;28;20073;-65
2022/06/19 07:03:55;;;;;;;5.35;2.40;;;;;;;;;;5027126;28;20048;-64
2022/06/19 07:06:25;;;;;;;4.55;2.03;;;;;;;;;;4998225;28;20065;-64
2022/06/19 07:08:55;;;;;;;3.97;1.90;;;;;;;;;;4996545;28;20049;-64
2022/06/19 07:11:23;;;;;;;4.80;2.08;;;;;;;;;;4995029;28;20049;-66
2022/06/19 07:13:50;;;;;;;4.55;1.63;;;;;;;;;;4995059;28;20052;-64
2022/06/19 07:16:17;;;;;;;3.90;1.30;;;;;;;;;;4996136;28;20409;-63
2022/06/19 07:18:44;;;;;;;5.55;1.38;;;;;;;;;;4996422;28;20038;-63
2022/06/19 07:21:11;;;;;;;3.88;1.70;;;;;;;;;;4995808;28;20070;-64
2022/06/19 07:23:38;;;;;;;3.38;1.58;;;;;;;;;;4996269;28;20030;-64
2022/06/19 07:26:08;;;;;;;4.78;1.98;;;;;;;;;;4996776;28;20054;-64
2022/06/19 07:28:35;;;;;;;3.42;1.50;;;;;;;;;;4994741;28;20033;-64
2022/06/19 07:31:01;;;;;;;4.07;1.48;;;;;;;;;;4996143;28;20120;-64
2022/06/19 07:33:28;;;;;;;3.28;1.30;;;;;;;;;;4994012;28;20516;-64
2022/06/19 07:35:54;;;;;;;4.75;1.40;;;;;;;;;;4995462;28;20042;-64
2022/06/19 07:38:21;;;;;;;3.42;1.63;;;;;;;;;;4995473;28;20534;-64
2022/06/19 07:40:48;;;;;;;6.38;1.45;;;;;;;;;;4995989;28;20209;-64
2022/06/19 07:43:14;;;;;;;4.20;1.30;;;;;;;;;;4994012;28;20048;-64
2022/06/19 07:45:41;;;;;;;3.25;1.40;;;;;;;;;;4994892;28;20794;-64
2022/06/19 07:50:55;;;;;;;5.30;1.50;;;;;;;;;;5017113;28;20044;-63
2022/06/19 07:53:22;;;;;;;3.30;1.27;;;;;;;;;;5019706;28;20038;-64
2022/06/19 07:55:49;;;;;;;3.88;1.20;;;;;;;;;;5021121;28;20429;-64
2022/06/19 07:58:15;;;;;;;3.70;1.40;;;;;;;;;;5008554;28;20041;-64
2022/06/19 08:00:42;;;;;;;2.85;1.20;;;;;;;;;;5019579;28;20061;-64
2022/06/19 08:03:09;;;;;;;4.20;1.50;;;;;;;;;;5013086;28;20041;-64
2022/06/19 08:05:37;;;;;;;3.70;1.42;;;;;;;;;;5016682;28;22073;-64
2022/06/19 08:08:05;;;;;;;5.88;1.67;;;;;;;;;;5025205;28;20807;-64
2022/06/19 08:10:35;;;;;;;6.45;1.75;;;;;;;;;;5019406;28;20037;-65
2022/06/19 08:13:02;;;;;;;3.28;1.40;;;;;;;;;;5021579;28;20049;-64
2022/06/19 08:15:29;;;;;;;3.72;1.55;;;;;;;;;;5037015;28;20033;-64
2022/06/19 08:17:56;;;;;;;4.82;1.55;;;;;;;;;;5033287;28;20041;-64
2022/06/19 08:20:23;;;;;;;3.60;1.58;;;;;;;;;;5024827;28;20053;-65
2022/06/19 08:22:50;;;;;;;6.00;1.60;;;;;;;;;;5012089;28;21001;-64
2022/06/19 08:25:17;;;;;;;3.30;1.50;;;;;;;;;;5016465;28;20092;-64
2022/06/19 08:27:47;;;;;;;5.10;1.45;;;;;;;;;;5025908;28;20045;-64
2022/06/19 08:30:16;;;;;;;4.13;1.65;;;;;;;;;;5024287;28;20037;-64
2022/06/19 08:32:42;;;;;;;3.70;1.50;;;;;;;;;;5019929;28;20432;-64
2022/06/19 08:35:09;;;;;;;3.92;1.40;;;;;;;;;;5029012;28;20049;-64
2022/06/19 08:37:37;;;;;;;4.47;1.88;;;;;;;;;;5025910;28;20061;-64
2022/06/19 08:40:11;;;;;;;3.38;1.70;;;;;;;;;;5024582;28;20037;-64
2022/06/19 08:42:44;;;;;;;4.75;1.65;;;;;;;;;;5016340;28;20211;-63
2022/06/19 08:45:23;;;;;;;4.63;1.80;;;;;;;;;;5018104;28;20041;-64
2022/06/19 08:48:09;;;;;;;4.03;1.73;;;;;;;;;;5018118;28;20037;-64
2022/06/19 08:51:01;;;;;;;6.05;1.55;;;;;;;;;;5023307;28;20387;-63
2022/06/19 08:53:43;;;;;;;4.47;1.60;;;;;;;;;;5010946;28;20164;-64
2022/06/19 08:56:10;;;;;;;3.95;1.80;;;;;;;;;;5015900;28;20045;-63
2022/06/19 08:58:48;;;;;;;3.95;1.73;;;;;;;;;;5019505;28;20083;-63
2022/06/19 09:01:27;;;;;;;4.97;1.92;;;;;;;;;;5021823;28;20151;-63
2022/06/19 09:06:54;;;;;;;3.60;1.65;;;;;;;;;;5032080;28;20536;-64
2022/06/19 09:09:26;;;;;;;6.28;1.70;;;;;;;;;;5025353;28;20041;-64
2022/06/19 09:12:06;;;;;;;5.43;1.60;;;;;;;;;;5036160;28;20132;-64
2022/06/19 09:14:32;;;;;;;3.83;1.90;;;;;;;;;;5013235;28;20116;-64
2022/06/19 09:16:59;;;;;;;4.13;1.92;;;;;;;;;;5037028;28;20405;-64
2022/06/19 09:19:37;;;;;;;6.80;1.80;;;;;;;;;;5036233;28;20087;-65
2022/06/19 09:22:22;;;;;;;3.20;1.48;;;;;;;;;;5036532;28;20485;-65
2022/06/19 09:25:07;;;;;;;4.05;2.00;;;;;;;;;;5036653;28;20083;-65
2022/06/19 09:27:55;;;;;;;4.43;2.00;;;;;;;;;;5037904;28;20045;-64
2022/06/19 09:30:26;;;;;;;3.35;1.67;;;;;;;;;;5037614;28;20033;-63
2022/06/19 09:32:56;;;;;;;3.53;1.80;;;;;;;;;;5016671;28;20041;-64
2022/06/19 09:35:32;;;;;;;5.18;2.10;;;;;;;;;;5018683;28;20042;-63
2022/06/19 09:38:02;;;;;;;4.85;1.90;;;;;;;;;;5032420;28;20053;-63
2022/06/19 09:40:38;;;;;;;6.93;2.03;;;;;;;;;;5028088;28;20052;-63
2022/06/19 09:43:31;;;;;;;4.80;2.22;;;;;;;;;;5021175;28;20041;-65
2022/06/19 09:46:09;;;;;;;5.77;2.10;;;;;;;;;;5011498;28;20107;-64
2022/06/19 09:48:56;;;;;;;5.45;2.30;;;;;;;;;;5015471;28;20046;-65
2022/06/19 09:51:43;;;;;;;6.40;2.10;;;;;;;;;;5015360;28;20142;-65
2022/06/19 09:54:21;;;;;;;5.68;2.00;;;;;;;;;;5009893;28;20072;-64
2022/06/19 09:56:49;;;;;;;4.35;2.17;;;;;;;;;;5032985;28;20727;-64
2022/06/19 09:59:20;;;;;;;4.57;2.10;;;;;;;;;;5017429;28;20986;-64
2022/06/19 10:01:55;;;;;;;5.85;2.00;;;;;;;;;;5011276;28;20050;-64
2022/06/19 10:04:27;;;;;;;3.95;1.90;;;;;;;;;;5024616;28;20029;-63
2022/06/19 10:06:55;;;;;;;3.78;1.90;;;;;;;;;;5037568;28;20097;-65
2022/06/19 10:09:22;;;;;;;4.68;2.50;;;;;;;;;;5037446;28;20180;-64
2022/06/19 10:11:51;;;;;;;4.15;2.00;;;;;;;;;;5037734;28;20041;-63
2022/06/19 10:14:27;;;;;;;4.13;1.80;;;;;;;;;;5036900;28;20476;-64
2022/06/19 10:16:59;;;;;;;3.53;1.90;;;;;;;;;;5023777;28;20545;-64
2022/06/19 10:19:30;;;;;;;3.90;1.90;;;;;;;;;;4997631;28;20043;-64
2022/06/19 10:22:15;;;;;;;4.30;2.10;;;;;;;;;;5013566;28;20565;-64
2022/06/19 10:25:00;;;;;;;4.00;2.10;;;;;;;;;;5012987;28;20044;-64
2022/06/19 10:27:44;;;;;;;4.90;2.22;;;;;;;;;;5014972;28;20041;-62
2022/06/19 10:30:22;;;;;;;5.82;2.10;;;;;;;;;;5013104;28;20564;-63
2022/06/19 10:33:07;;;;;;;4.43;1.75;;;;;;;;;;5014941;28;20982;-62
2022/06/19 10:35:34;;;;;;;4.10;2.00;;;;;;;;;;5015497;28;20375;-62
2022/06/19 10:38:19;;;;;;;5.15;2.10;;;;;;;;;;5016287;28;20506;-62
2022/06/19 10:40:46;;;;;;;3.80;2.03;;;;;;;;;;5013450;28;20049;-63
2022/06/19 10:43:22;;;;;;;4.43;2.40;;;;;;;;;;5011153;28;20414;-62
2022/06/19 10:45:52;;;;;;;4.07;1.90;;;;;;;;;;5030323;28;20052;-63
2022/06/19 10:48:38;;;;;;;7.60;2.40;;;;;;;;;;5013887;28;20045;-64
2022/06/19 10:51:24;;;;;;;5.30;2.70;;;;;;;;;;5029257;28;20069;-63
2022/06/19 10:54:09;;;;;;;4.38;2.30;;;;;;;;;;5008507;28;20037;-63
2022/06/19 10:56:44;;;;;;;4.60;2.38;;;;;;;;;;5009966;28;20780;-63
2022/06/19 10:59:13;;;;;;;5.07;2.20;;;;;;;;;;5011479;28;20069;-63
2022/06/19 11:05:00;;;;;;;5.88;2.60;;;;;;;;;;5028867;28;20120;-63
2022/06/19 11:07:27;;;;;;;4.30;2.30;;;;;;;;;;5012895;28;20073;-63
2022/06/19 11:09:55;;;;;;;4.43;2.17;;;;;;;;;;5012801;28;20049;-64
2022/06/19 11:12:29;;;;;;;4.03;2.20;;;;;;;;;;5010836;28;20092;-64
2022/06/19 11:14:58;;;;;;;4.10;2.05;;;;;;;;;;5013474;28;20034;-63
2022/06/19 11:17:38;;;;;;;5.20;2.55;;;;;;;;;;4996377;28;20092;-63
2022/06/19 11:20:17;;;;;;;3.85;2.08;;;;;;;;;;5013503;28;20071;-64
2022/06/19 11:22:48;;;;;;;4.22;2.17;;;;;;;;;;5011898;28;20033;-64
2022/06/19 11:25:21;;;;;;;4.82;2.33;;;;;;;;;;5012199;28;20155;-64
2022/06/19 11:28:06;;;;;;;4.45;2.20;;;;;;;;;;5024169;28;20041;-64
2022/06/19 11:30:35;;;;;;;6.78;2.67;;;;;;;;;;5032885;28;20047;-63
2022/06/19 11:33:04;;;;;;;5.10;2.47;;;;;;;;;;5019876;28;20057;-64
2022/06/19 11:35:57;;;;;;;4.47;2.38;;;;;;;;;;5014684;28;20041;-63
2022/06/19 11:38:36;;;;;;;4.93;2.30;;;;;;;;;;5010595;28;20041;-63
2022/06/19 11:41:14;;;;;;;5.60;2.47;;;;;;;;;;5014295;28;20073;-64
2022/06/19 11:43:41;;;;;;;3.95;2.15;;;;;;;;;;5022959;28;20041;-64
2022/06/19 11:46:15;;;;;;;5.70;2.45;;;;;;;;;;5030491;28;20647;-64
2022/06/19 11:48:42;;;;;;;6.78;2.78;;;;;;;;;;4998215;28;20414;-65
2022/06/19 11:51:17;;;;;;;4.55;2.20;;;;;;;;;;5006939;28;20117;-64
2022/06/19 11:53:44;;;;;;;7.45;2.40;;;;;;;;;;4997478;28;20859;-64
2022/06/19 11:56:26;;;;;;;5.10;2.20;;;;;;;;;;5006816;28;20635;-64
2022/06/19 11:58:57;;;;;;;4.18;2.40;;;;;;;;;;5007398;28;20033;-65
2022/06/19 12:01:34;;;;;;;4.38;2.30;;;;;;;;;;5014383;28;20192;-65
2022/06/19 12:04:02;;;;;;;4.35;2.00;;;;;;;;;;5025576;28;20059;-64
2022/06/19 12:06:49;;;;;;;5.40;2.28;;;;;;;;;;5030992;28;20053;-64
2022/06/19 12:09:25;;;;;;;4.25;2.05;;;;;;;;;;5035783;28;20068;-65
2022/06/19 12:11:54;;;;;;;4.93;2.05;;;;;;;;;;5018562;28;20077;-65
2022/06/19 12:14:29;;;;;;;4.43;2.10;;;;;;;;;;5013552;28;20103;-64
2022/06/19 12:17:14;;;;;;;4.68;2.40;;;;;;;;;;5013196;28;20037;-64
2022/06/19 12:19:47;;;;;;;4.40;2.20;;;;;;;;;;5013873;28;20037;-64
2022/06/19 12:22:13;;;;;;;;;;;;;;;;;;5015464;28;20140;-64
2022/06/19 12:24:51;;;;;;;4.90;2.47;;;;;;;;;;5014859;28;24340;-63
2022/06/19 12:27:19;;;;;;;4.75;2.53;;;;;;;;;;5012788;28;20049;-64
2022/06/19 12:29:58;;;;;;;4.13;2.30;;;;;;;;;;5008420;28;20084;-63
2022/06/19 12:32:25;;;;;;;4.20;2.22;;;;;;;;;;5023802;28;20413;-63
2022/06/19 12:34:54;;;;;;;4.47;1.92;;;;;;;;;;5036621;28;20036;-63
2022/06/19 12:37:27;;;;;;;6.68;2.63;;;;;;;;;;5037476;28;20075;-62
2022/06/19 12:39:54;;;;;;;5.50;2.35;;;;;;;;;;5038944;28;20829;-63
2022/06/19 12:42:33;;;;;;;4.35;2.35;;;;;;;;;;5039527;28;20895;-63
2022/06/19 12:45:18;;;;;;;4.72;2.10;;;;;;;;;;5040413;28;20045;-63
2022/06/19 12:47:52;;;;;;;4.32;1.90;;;;;;;;;;5002933;28;20042;-63
2022/06/19 12:50:38;;;;;;;5.40;2.17;;;;;;;;;;5018124;28;20418;-63
2022/06/19 12:53:16;;;;;;;4.53;2.15;;;;;;;;;;5024076;28;20033;-63
2022/06/19 12:55:43;;;;;;;6.43;2.67;;;;;;;;;;5018321;28;20115;-63
2022/06/19 12:58:16;;;;;;;8.30;2.60;;;;;;;;;;5009184;28;20057;-64
2022/06/19 13:00:51;;;;;;;7.60;2.33;;;;;;;;;;5015880;28;20127;-64
2022/06/19 13:03:27;;;;;;;4.22;2.13;;;;;;;;;;5011077;28;20053;-65
2022/06/19 13:06:08;;;;;;;4.32;2.17;;;;;;;;;;5004086;28;20111;-65
2022/06/19 13:08:37;;;;;;;6.70;2.22;;;;;;;;;;5018020;28;20044;-65
2022/06/19 13:11:15;;;;;;;6.03;2.78;;;;;;;;;;5017311;28;20037;-66
2022/06/19 13:14:00;;;;;;;4.70;2.22;;;;;;;;;;5016147;28;20096;-65
2022/06/19 13:16:36;;;;;;;5.10;2.72;;;;;;;;;;5016506;28;20084;-65
2022/06/19 13:19:12;;;;;;;4.93;2.10;;;;;;;;;;5017962;28;20110;-65
2022/06/19 13:21:47;;;;;;;4.75;2.67;;;;;;;;;;5017892;28;20049;-65
2022/06/19 13:24:23;;;;;;;7.28;2.42;;;;;;;;;;5017366;28;20038;-65
2022/06/19 13:27:11;;;;;;;3.97;2.10;;;;;;;;;;5006927;28;20045;-62
2022/06/19 13:29:37;;;;;;;4.90;2.53;;;;;;;;;;5011035;28;20071;-62
2022/06/19 13:32:12;;;;;;;5.07;2.47;;;;;;;;;;5033751;28;20135;-62
2022/06/19 13:34:56;;;;;;;4.65;2.67;;;;;;;;;;5019279;28;20073;-61
2022/06/19 13:37:32;;;;;;;4.40;2.38;;;;;;;;;;5035193;28;20107;-61
2022/06/19 13:40:11;;;;;;;4.65;2.65;;;;;;;;;;5023059;28;20037;-61
2022/06/19 13:42:43;;;;;;;4.60;2.45;;;;;;;;;;5034555;28;20087;-61
2022/06/19 13:45:22;;;;;;;4.45;2.38;;;;;;;;;;5019074;28;20122;-60
2022/06/19 13:48:18;;;;;;;6.20;2.72;;;;;;;;;;5012006;28;20124;-61
2022/06/19 13:50:49;;;;;;;7.55;2.60;;;;;;;;;;5000506;28;20045;-61
2022/06/19 13:53:40;;;;;;;4.78;2.50;;;;;;;;;;5021422;28;20049;-60
2022/06/19 13:56:10;;;;;;;4.25;2.40;;;;;;;;;;5010341;28;20473;-60
2022/06/19 13:58:55;;;;;;;5.28;2.40;;;;;;;;;;5014344;28;20107;-60
2022/06/19 14:01:40;;;;;;;5.18;2.40;;;;;;;;;;4998567;28;20164;-61
2022/06/19 14:07:25;;;;;;;4.93;2.47;;;;;;;;;;5021876;28;20140;-61
2022/06/19 14:10:06;;;;;;;5.95;3.15;;;;;;;;;;5035967;28;20045;-62
2022/06/19 14:12:44;;;;;;;5.22;2.78;;;;;;;;;;5035070;28;20045;-63
2022/06/19 14:15:16;;;;;;;5.95;2.50;;;;;;;;;;5037535;28;20048;-63
2022/06/19 14:17:48;;;;;;;5.40;2.60;;;;;;;;;;5031690;28;20406;-62
2022/06/19 14:20:22;;;;;;;5.30;2.42;;;;;;;;;;5023505;28;20402;-63
2022/06/19 14:22:49;;;;;;;5.60;2.15;;;;;;;;;;5026761;28;20152;-61
2022/06/19 14:25:31;;;;;;;8.50;4.57;;;;;;;;;;5016825;28;20045;-65
2022/06/19 14:28:09;;;;;;;4.72;2.35;;;;;;;;;;5021018;28;20045;-64
2022/06/19 14:30:40;;;;;;;5.22;2.65;;;;;;;;;;4998187;28;20081;-64
2022/06/19 14:33:26;;;;;;;4.18;2.17;;;;;;;;;;5019967;28;20648;-64
2022/06/19 14:36:13;;;;;;;3.63;1.90;;;;;;;;;;5016465;28;20057;-64
2022/06/19 14:38:40;;;;;;;5.90;1.75;;;;;;;;;;5005835;28;20045;-64
2022/06/19 14:41:08;;;;;;;4.53;1.70;;;;;;;;;;5013588;28;20053;-64
2022/06/19 14:43:40;;;;;;;4.97;1.80;;;;;;;;;;5012623;28;20068;-64
2022/06/19 14:46:20;;;;;;;3.55;1.83;;;;;;;;;;5011380;28;20029;-64
2022/06/19 14:48:55;;;;;;;4.63;1.83;;;;;;;;;;5012608;28;20749;-64
2022/06/19 14:51:40;;;;;;;5.70;1.90;;;;;;;;;;5011336;28;20982;-64
2022/06/19 14:54:10;;;;;;;4.07;2.05;;;;;;;;;;5012520;28;20044;-63
2022/06/19 14:56:48;;;;;;;4.40;1.80;;;;;;;;;;5012071;28;20045;-64
2022/06/19 14:59:27;;;;;;;4.63;2.05;;;;;;;;;;5012345;28;20065;-64
2022/06/19 15:01:55;;;;;;;5.10;2.33;;;;;;;;;;5021824;28;20562;-64
2022/06/19 15:04:23;;;;;;;5.03;2.20;;;;;;;;;;5015336;28;20069;-64
2022/06/19 15:06:58;;;;;;;5.63;2.50;;;;;;;;;;5014688;28;20045;-64
2022/06/19 15:09:28;;;;;;;6.22;2.17;;;;;;;;;;5024772;28;20079;-64
2022/06/19 15:12:07;;;;;;;4.60;2.25;;;;;;;;;;5016350;28;20037;-64
2022/06/19 15:14:34;;;;;;;5.10;2.42;;;;;;;;;;5018517;28;20445;-65
2022/06/19 15:17:20;;;;;;;4.25;2.42;;;;;;;;;;5018269;28;20494;-62
2022/06/19 15:19:48;;;;;;;4.78;2.10;;;;;;;;;;5016241;28;20094;-63